Aérodrome :
LOGIN :

S'inscrire | Disclaimer

   EN    FR    IT 

 










Légende :    VFR   VFR Marginal   IFR   IFR Intensif   IFR Très Intensif
Visi : 
Plafond : 
>= 8 km
>= 3000ft
5 à 8 km
1000 à 3000 ft
1500m à 5 km
500 à 1000 ft
800 à 1500m
200 à 500 ft
< 800m
< 200 ft
Symboles :   Orages  Brouillard  Fortes neiges  Fortes précipitations  Vent > 20 kt
SIGMETs :   Divers  Orages  Givrage  Turbulence  Onde Orograph.  Cendres Volcan.







- Altitude de l'aérodrome : 300 ft
- Code IATA : MLA


LMML - Malta Luqa

DERNIER METAR :
  • 192015Z 21002KT 9999 FEW024 25/20 Q1018 NOSIG

METARs EXPIRÉS :
  • 191945Z 29002KT 9999 FEW023 25/21 Q1019 NOSIG
  • 191915Z VRB01KT 9999 FEW023 26/21 Q1019 NOSIG
  • 191845Z 03004KT 9999 FEW024 26/21 Q1019 NOSIG
  • 191815Z 03005KT 9999 SCT024 26/21 Q1018 NOSIG
  • 191745Z 03004KT 9999 FEW027 26/20 Q1018 NOSIG

TAF TAF LMML
Valide du 19 à 18h jusqu'au 20 à 18h UTC


191700Z 1918/2018 26006KT 9999 SCT020
PROB30
TEMPO 1918/2018 8000 SHRA BKN080TCU
PROB30 1918/2018 VRB15G25KT 4000 TSRA BKN080CB
Pas de NOTAMs connus pour ce terrain.
1 SIGMET publié pour la FIR Malta (LMMM) :
 
Orages fréquents
LMMM SIGMET 2 VALID 191906/192306 LMML
LMMM MALTA FIR FRQ TS OBS AND FCST W OF E013 TOP FL390 MOV E INTSF=



MET'MAP, la Météo Aéronautique d'un coup d'oeil ! - Copyright ORBIFLY Décembre 2007 - Disclaimer

ORBIFLY MET'MAP TEAM :

Programmation & Développement : Alexandra Zaïnal
Conception & Développement : Baudouin d'Aumeries
Co-Programmation & Développement : Marc-Olivier Méhu
Soutien technique & logistique : Manuel Goepfert

Contact : metmap@orbifly.com




SOURCES & CREDITS :

   NOAA